Date,TemperatureHighF,TemperatureAvgF,TemperatureLowF,DewpointHighF,DewpointAvgF,DewpointLowF,HumidityHigh,HumidityAvg,HumidityLow,PressureMaxIn,PressureMinIn,WindSpeedMaxMPH,WindSpeedAvgMPH,GustSpeedMaxMPH,PrecipitationSumIn
2013-1-1,65.6,59.7,51.6,63.2,58.1,49.9,98,94,90,30.08,29.91,23,5,0,1.56
2013-1-2,44.5,27.9,41.2,40.9,-9.2,-99.9,90,57,83,30.29,30.18,14,-345,0,0.00
2013-1-3,51.2,42.7,38.2,40.0,36.7,34.6,91,80,58,30.42,30.25,19,3,0,0.00
2013-1-4,52.1,44.8,38.2,40.5,36.5,32.8,86,73,49,30.51,30.33,13,1,0,0.00
2013-1-5,48.0,45.0,43.3,43.7,41.3,38.2,97,87,74,30.38,30.24,15,2,0,0.26
2013-1-6,56.7,47.4,40.8,48.7,44.3,38.8,98,89,70,30.32,30.22,18,4,0,0.32
2013-1-7,40.7,40.6,40.4,39.1,38.9,38.6,94,94,93,30.32,30.31,0,0,0,0.00
2013-1-10,64.7,63.8,62.3,64.4,63.5,61.9,99,99,99,30.10,30.01,19,2,0,0.40
2013-1-11,71.6,64.4,55.9,70.9,62.2,55.6,100,93,72,30.09,29.97,18,1,0,0.20
2013-1-12,76.0,72.5,69.9,71.2,70.2,69.2,98,93,83,30.02,29.85,28,7,0,0.00
2013-1-13,72.4,58.6,45.5,70.2,56.9,43.6,97,94,91,30.15,29.78,37,9,0,1.37
2013-1-14,45.6,41.3,37.1,43.6,39.8,35.8,97,95,90,30.20,30.07,24,7,0,0.56
2013-1-15,40.5,38.1,35.5,39.0,37.3,34.7,98,97,94,30.12,30.00,21,6,0,0.33
2013-1-16,39.2,36.8,34.9,38.0,35.8,34.0,98,96,93,30.24,30.07,18,6,0,0.36
2013-1-17,57.4,42.2,33.4,40.9,35.9,30.8,97,80,49,30.47,30.22,14,2,0,0.00
2013-1-18,62.4,43.3,32.5,41.7,36.1,31.7,98,79,36,30.55,30.39,12,0,0,0.00
2013-1-19,63.1,44.6,32.9,50.0,39.8,31.6,98,85,51,30.39,30.24,7,0,0,0.00
2013-2-6,54.3,54.1,53.8,54.0,53.8,53.5,99,99,99,30.10,30.08,2,0,0,0.01
2013-2-18,65.5,64.5,63.0,64.0,62.9,60.8,96,95,92,30.00,29.93,24,9,0,1.41
2013-2-19,65.5,56.6,48.8,62.7,47.7,37.7,95,74,37,30.27,29.97,24,6,0,0.00
2013-2-20,63.9,57.0,48.9,42.0,37.5,30.6,54,48,40,30.25,29.98,22,4,0,0.00
2013-2-21,72.9,63.5,53.9,69.8,57.4,37.2,97,81,53,29.98,29.69,43,8,0,1.19
2013-2-22,65.5,60.5,55.9,63.3,54.9,51.1,96,82,62,29.99,29.87,14,2,0,0.02
2013-2-23,65.1,55.1,47.8,54.6,49.8,44.4,95,83,64,30.01,29.89,17,2,0,0.00
2013-2-24,73.5,56.9,42.0,59.3,50.9,40.1,96,82,54,30.00,29.71,18,1,0,0.03
2013-2-25,70.3,63.4,51.8,68.5,59.8,37.1,98,89,52,29.73,29.42,24,4,0,0.72
2013-2-26,63.1,51.8,43.8,45.6,40.7,36.0,80,66,47,29.95,29.63,24,4,0,0.00
2013-2-27,71.0,54.8,42.0,54.2,44.5,37.6,95,71,41,30.10,29.94,19,3,0,0.00
2013-2-28,53.9,45.9,39.8,40.2,35.8,32.3,84,68,48,30.22,30.09,17,3,0,0.00
2013-3-1,59.1,47.1,38.4,40.2,35.6,29.8,90,67,33,30.21,30.10,25,3,0,0.00
2013-3-2,47.7,39.9,32.3,34.6,30.9,27.3,96,71,50,30.28,30.18,25,4,0,0.00
2013-3-3,61.3,43.4,27.6,39.5,32.5,26.1,96,69,35,30.31,30.10,12,1,0,0.00
2013-3-4,72.6,60.1,43.5,60.6,53.7,38.8,92,81,61,30.10,29.88,33,9,0,0.00
2013-3-5,71.0,62.9,50.1,63.9,50.6,30.8,94,68,32,30.27,29.87,25,7,0,0.00
2013-3-6,63.4,48.8,35.7,37.2,32.2,28.7,78,55,30,30.39,30.24,16,2,0,0.00
2013-3-7,67.1,50.1,34.4,44.2,37.1,31.6,92,64,34,30.36,30.23,10,0,0,0.00
2013-3-8,73.5,55.7,38.4,53.4,45.5,35.0,98,72,30,30.30,30.13,15,0,0,0.00
2013-3-9,71.2,62.7,52.4,63.0,57.6,50.1,94,84,73,30.13,29.90,32,5,0,0.00
2013-3-10,75.3,63.9,53.2,67.1,60.7,52.4,98,90,75,29.98,29.83,35,6,0,1.69
2013-3-11,57.5,49.3,44.3,52.9,42.5,37.1,98,79,48,30.08,29.95,24,6,0,0.12
2013-3-14,42.0,42.0,42.0,37.0,37.0,37.0,82,82,82,30.40,30.40,0,0,0,0.00
2013-3-15,74.9,67.9,57.7,54.8,53.0,49.3,90,63,42,30.14,30.12,19,7,0,0.00
2013-3-16,79.0,53.6,53.5,53.0,52.9,52.7,97,97,97,33.00,28.00,5,0,0,0.00
2013-3-30,77.8,69.0,62.6,62.3,60.5,57.3,96,76,55,30.06,30.01,22,4,0,0.00
2013-3-31,78.0,63.7,56.4,68.9,61.5,55.6,100,93,69,30.03,29.90,11,1,0,0.13
2013-4-1,79.2,64.1,54.2,63.8,57.9,53.6,99,83,46,30.11,29.96,0,0,0,0.01
2013-4-2,81.3,66.2,52.4,65.8,58.2,50.4,96,77,52,30.11,29.93,0,0,0,0.00
2013-4-3,67.1,55.1,49.5,62.1,53.5,48.1,98,94,82,30.06,29.80,0,0,0,0.19
2013-4-4,54.4,49.2,47.1,49.6,47.1,45.0,98,93,83,30.11,29.98,0,0,0,0.02
2013-4-5,70.3,55.1,43.6,55.8,47.9,41.9,95,79,44,30.21,30.08,0,0,0,0.01
2013-4-6,72.5,59.3,44.6,58.4,52.0,43.3,96,78,56,30.15,30.02,0,0,0,0.01
2013-4-7,77.8,66.3,56.3,64.9,60.0,54.5,96,82,58,30.07,29.93,0,0,0,0.01
2013-4-8,80.8,70.2,61.7,67.4,63.9,60.5,99,82,58,29.97,29.88,0,0,0,0.00
2013-4-9,82.0,74.6,66.0,73.5,70.1,64.5,97,86,74,29.94,29.82,0,0,0,0.00
2013-4-10,81.7,76.3,71.7,73.9,71.5,68.8,92,86,76,29.92,29.78,0,0,0,0.00
2013-4-11,74.9,58.9,50.0,71.7,56.0,48.8,97,90,73,29.88,29.70,0,0,0,0.00
2013-4-12,76.0,58.2,44.8,55.1,49.1,43.7,98,76,36,30.03,29.88,0,0,0,0.00
2013-4-13,83.2,65.8,49.3,57.3,51.7,47.4,95,65,34,30.04,29.84,0,0,0,0.00
2013-4-14,78.5,67.0,57.1,70.2,63.0,51.8,98,88,63,29.85,29.72,0,0,0,0.00
2013-4-15,78.9,69.3,61.3,74.4,67.5,60.4,98,94,82,29.93,29.80,0,0,0,0.01
2013-4-16,81.3,75.3,73.4,74.8,73.0,72.2,96,92,80,30.05,29.92,0,0,0,0.00
2013-4-17,86.3,78.4,71.7,76.1,72.8,69.8,95,84,67,30.05,29.89,0,0,0,0.00
2013-4-18,83.7,73.5,52.1,74.8,68.7,49.9,95,86,72,29.99,29.74,0,0,0,0.01
2013-4-19,62.3,52.7,46.3,49.8,41.7,36.8,93,68,42,30.22,29.99,0,0,0,0.00
2013-4-20,73.1,56.1,40.3,51.6,45.1,38.6,96,70,40,30.28,30.11,0,0,0,0.00
2013-4-21,76.9,60.1,45.9,55.7,49.3,44.3,96,71,37,30.22,30.09,0,0,0,0.00
2013-4-22,82.7,65.3,49.1,60.6,54.6,47.7,97,72,37,30.14,29.98,0,0,0,0.00
2013-4-23,84.1,72.0,62.4,71.9,67.0,59.4,98,85,62,30.04,29.93,0,0,0,0.00
2013-4-24,71.5,70.7,64.7,69.2,68.8,60.3,96,94,92,30.04,29.94,0,0,0,0.00
2013-4-29,75.9,69.8,64.8,68.5,65.6,63.2,95,87,69,29.91,29.86,0,0,0,0.00
2013-4-30,78.7,69.5,63.7,72.6,67.1,62.4,97,92,78,29.90,29.82,0,0,0,0.00
2013-5-1,86.1,71.8,64.1,71.9,66.7,62.6,96,85,53,29.92,29.82,0,0,0,0.00
2013-5-2,74.7,68.0,61.1,68.5,65.1,58.6,97,91,79,30.01,29.89,0,0,0,0.00
2013-5-3,60.5,53.0,45.4,58.4,48.3,43.5,95,85,63,30.08,29.99,0,0,0,0.00
2013-5-4,75.2,58.5,41.5,55.9,47.1,39.8,100,71,33,30.07,29.86,0,0,0,0.00
2013-5-5,65.7,55.9,47.3,55.1,45.8,42.6,90,70,49,30.06,29.92,0,0,0,0.00
2013-5-6,80.8,61.9,46.0,59.7,52.6,44.6,96,75,44,30.08,29.93,0,0,0,0.00
2013-5-7,85.8,68.9,56.7,65.7,57.7,-99.9,97,75,44,30.07,29.98,0,0,0,0.00
2013-5-8,83.6,70.1,57.7,67.3,61.4,56.3,97,77,47,30.11,30.02,0,0,0,0.00
2013-5-9,79.5,71.4,61.2,71.7,67.4,59.8,97,88,74,30.09,29.96,0,0,0,0.00
2013-5-10,73.4,68.6,64.3,70.9,62.4,-99.9,96,92,82,30.04,29.83,0,0,0,2.28
2013-6-25,92.4,84.7,76.9,79.8,76.2,72.7,87,77,67,30.09,30.06,0,0,0,0.00
2013-6-30,92.0,82.6,71.7,68.6,65.8,61.1,84,59,39,29.83,29.76,0,0,0,0.02
2013-7-1,87.9,76.9,66.8,70.2,66.9,63.1,88,73,47,29.95,29.83,0,0,0,0.00
2013-7-2,93.5,77.8,66.2,71.9,67.0,62.5,88,72,41,30.01,29.93,0,0,0,0.00
2013-7-3,92.2,78.2,66.8,72.0,67.3,63.1,88,72,42,30.04,29.93,0,0,0,0.00
2013-7-4,94.2,79.5,68.7,74.8,69.4,64.9,89,74,46,29.99,29.92,0,0,0,0.00
2013-7-5,92.2,78.9,70.7,77.7,71.6,67.0,88,79,59,29.99,29.94,0,0,0,0.00
2013-7-6,93.4,78.1,69.9,78.7,72.0,66.2,89,82,61,30.01,29.93,10,0,0,0.10
2013-7-7,89.5,79.4,74.8,78.9,73.3,70.3,86,82,69,30.09,29.97,12,0,0,0.00
2013-7-8,96.4,81.0,71.0,78.3,72.7,66.3,85,77,53,30.17,30.06,0,0,0,0.00
2013-7-9,95.5,82.0,72.9,78.5,73.3,67.4,84,76,54,30.19,30.08,0,0,0,0.00
2013-7-10,100.6,84.4,73.1,78.7,73.8,67.0,83,72,46,30.12,29.98,0,0,0,0.00
2013-7-11,92.8,79.7,72.7,78.5,72.5,66.5,84,79,60,30.02,29.92,0,0,0,0.01
2013-7-12,97.8,82.1,71.9,80.9,72.4,65.7,82,74,48,29.98,29.88,0,0,0,0.00
2013-7-13,92.8,80.0,68.5,75.5,68.5,54.9,84,70,30,29.97,29.89,0,0,0,0.00
2013-7-14,90.9,78.9,69.7,77.4,70.8,63.8,83,77,55,29.99,29.90,0,0,0,0.00
2013-7-15,88.9,76.8,72.2,78.6,70.2,65.9,83,80,66,30.12,29.97,0,0,0,0.00
2013-7-16,89.5,79.3,72.8,79.4,71.6,65.5,82,78,69,30.17,30.08,0,0,0,0.00
2013-7-17,94.5,80.8,74.1,79.8,69.1,-99.9,81,74,58,30.24,30.12,0,0,0,0.01
2013-7-18,91.8,79.1,70.9,78.5,70.2,62.6,81,74,61,30.18,30.03,0,0,0,0.07
2013-7-19,89.9,77.5,69.2,78.7,69.1,60.9,80,75,65,30.08,29.97,4,0,0,0.00
2013-7-20,121.0,79.1,70.8,77.6,68.8,-39.4,79,71,53,33.00,27.00,119,0,120,4.00
2013-7-21,87.1,79.4,73.3,77.3,70.2,62.7,79,74,68,30.06,29.97,0,0,0,0.02
2013-7-22,97.3,83.2,74.6,80.6,72.2,63.3,78,70,57,30.07,29.99,0,0,0,0.03
2013-7-23,98.3,84.0,74.2,79.4,71.4,62.1,77,66,51,30.07,29.93,0,0,0,0.00
2013-7-24,99.0,84.5,76.0,78.9,70.9,62.6,77,64,47,30.01,29.90,0,0,0,0.00
2013-7-25,96.3,82.9,74.9,78.5,70.4,-24.4,77,66,53,30.07,29.95,90,0,0,5.00
2013-7-26,108.0,82.9,73.1,79.1,70.9,34.0,77,68,54,30.08,29.95,72,0,0,0.00
2013-7-27,91.8,80.7,74.7,80.4,68.9,60.8,76,68,60,29.98,29.88,0,0,0,0.09
2013-7-28,95.6,80.9,72.7,80.5,67.1,58.6,76,63,55,30.03,29.92,0,0,0,0.04
2013-7-29,99.1,83.8,74.5,79.3,68.6,57.8,76,61,46,30.12,30.02,0,0,0,0.01
2013-7-30,96.2,83.3,72.6,79.2,68.6,55.5,76,62,48,30.16,30.06,0,0,0,0.00
2013-7-31,99.8,84.4,73.1,80.4,69.7,55.5,76,62,46,30.12,29.97,0,0,0,0.00
2013-8-1,98.3,84.7,74.5,79.7,70.3,56.2,76,63,49,30.05,29.92,0,0,0,0.00
2013-8-2,102.5,86.5,76.4,79.7,71.2,56.9,76,61,43,30.02,29.93,0,0,0,0.00
2013-8-3,98.5,85.4,75.6,79.6,69.9,55.8,76,60,46,30.08,30.00,0,0,0,0.00
2013-8-4,100.2,81.5,74.1,79.9,60.6,-99.9,75,57,46,30.11,30.00,0,0,0,0.00
2013-8-5,97.3,83.3,73.8,80.7,65.7,44.8,74,57,28,30.08,29.95,0,0,0,0.07
2013-8-6,97.6,84.9,74.2,80.2,66.3,46.3,74,55,32,30.02,29.90,0,0,0,0.10
2013-8-7,101.5,85.1,74.4,79.1,65.4,45.3,73,53,31,30.00,29.88,0,0,0,0.03
2013-8-8,98.3,83.9,72.3,80.6,64.4,43.2,73,53,29,29.99,29.88,0,0,0,0.00
2013-8-9,100.6,83.5,73.6,80.5,64.8,43.1,73,55,31,30.01,29.91,0,0,0,0.00
2013-8-10,95.0,81.5,74.9,79.1,61.3,42.6,71,52,30,30.08,29.99,0,0,0,0.02
2013-8-11,91.7,79.4,72.0,78.8,57.9,40.7,71,50,28,30.11,30.04,0,0,0,0.02
2013-8-12,89.8,80.8,73.3,77.7,56.5,31.5,70,47,17,30.11,30.01,0,0,0,0.00
2013-8-13,100.3,83.9,74.9,82.2,57.7,28.3,71,44,16,30.06,29.92,0,0,0,0.00
2013-8-14,86.3,76.9,72.8,72.0,47.1,27.2,68,37,15,30.01,29.94,0,0,0,0.00
2013-8-15,91.5,76.8,67.4,75.7,49.5,23.3,69,42,16,30.04,29.93,0,0,0,0.00
2013-8-16,90.8,77.5,67.0,72.3,51.8,19.0,70,45,15,30.01,29.93,0,0,0,0.00
2013-8-17,91.1,77.4,64.9,73.7,58.5,30.5,70,53,27,30.00,29.92,0,0,0,0.00
2013-8-18,85.0,70.0,63.0,72.0,26.3,11.7,94,22,10,30.01,29.87,17,1,24,0.00
2013-8-19,86.0,80.7,72.0,75.0,74.1,70.0,94,80,67,30.06,29.99,9,4,0,0.65
2013-8-20,88.0,82.8,75.0,76.0,74.8,73.0,96,77,65,30.07,30.00,13,4,0,0.30
2013-8-23,82.0,82.0,82.0,72.0,72.0,72.0,71,71,71,29.94,29.94,5,5,0,0.00
2013-8-26,88.0,77.3,76.0,74.0,73.8,72.0,94,89,59,30.12,30.10,13,0,24,1.29
2013-8-27,82.0,82.0,82.0,73.0,73.0,73.0,74,74,74,30.04,30.04,0,0,0,0.00
2013-8-28,85.0,79.7,74.0,73.0,70.8,66.0,91,76,56,30.08,30.01,5,1,5,0.00
2013-8-29,89.0,88.9,88.0,70.0,69.9,69.0,53,53,53,30.02,30.00,5,1,0,0.00
2013-9-6,112.0,67.0,67.0,49.3,49.3,49.3,53,53,53,31.00,31.00,63,63,0,5.00
2013-9-10,96.5,85.0,74.1,75.2,-8.2,-99.9,54,23,1,30.11,30.03,0,0,0,0.00
2013-9-11,74.2,73.2,71.9,-99.9,-99.9,-99.9,0,0,100,30.09,30.07,0,0,0,0.00
2013-9-12,99.6,83.5,72.4,68.8,13.5,-99.9,53,27,1,29.95,29.91,0,0,0,0.00
2013-9-13,101.9,81.8,70.5,72.7,-27.3,-99.9,53,19,3,29.95,29.80,0,0,0,0.00
2013-9-14,95.2,81.1,73.4,74.2,-27.0,-99.9,53,20,2,29.98,29.88,0,0,0,0.00
2013-9-15,98.5,81.2,69.6,74.7,-27.5,-99.9,53,19,1,30.05,29.95,0,0,0,0.00
2013-9-16,99.0,82.6,71.3,75.2,-23.4,-99.9,52,18,2,30.07,29.99,0,0,0,0.00
2013-9-17,76.5,72.7,71.0,-99.9,-99.9,-99.9,0,0,100,30.05,30.02,0,0,0,0.00
2013-9-21,74.7,73.0,71.9,-99.9,-99.9,-99.9,0,0,100,29.82,29.75,0,0,0,0.13
2013-9-22,84.5,75.2,64.2,64.5,16.7,-99.9,55,36,5,29.86,29.77,0,0,0,0.02
2013-9-23,132.0,57.9,-32.0,94.7,-14.2,-99.9,100,28,2,34.00,24.00,120,25,0,8.00
2013-9-24,132.0,40.6,-30.0,95.6,23.7,-34.3,94,45,4,35.00,24.00,120,49,0,4.00
2013-9-27,73.5,70.7,69.2,-5.6,-95.8,-99.9,4,0,3,29.99,25.00,59,0,0,8.00
2013-9-28,92.0,77.7,69.9,71.4,-35.9,-99.9,53,17,1,30.06,29.97,0,0,0,0.00
2013-9-29,84.8,75.5,71.4,59.4,-72.6,-99.9,43,6,3,30.03,29.94,0,0,0,0.00
2013-9-30,132.0,75.4,72.7,30.3,-96.7,-99.9,15,0,1,34.00,24.00,118,0,0,0.00
2013-10-1,89.0,76.6,72.7,61.3,-84.2,-99.9,40,3,2,30.12,29.93,7,0,0,0.00
2013-10-2,91.1,78.9,72.0,70.8,-51.8,-99.9,52,11,2,30.17,29.95,11,0,0,0.00
2013-10-3,91.7,79.0,71.5,71.5,-64.0,-99.9,53,9,9,30.03,29.92,0,0,0,0.00
2013-10-4,91.3,79.5,75.3,65.1,-66.0,-99.9,44,5,1,30.02,29.93,0,0,0,0.00
2013-10-5,90.8,78.5,73.4,65.7,-78.3,-99.9,45,4,1,29.98,29.89,0,0,0,0.00
2013-10-6,77.0,70.2,55.9,59.9,-23.7,-99.9,59,25,2,30.02,29.88,0,0,0,0.00
2013-10-7,76.4,63.3,52.6,56.9,-7.7,-99.9,59,26,1,30.10,30.00,0,0,0,0.00
2013-10-8,77.5,63.1,53.0,59.3,-32.0,-99.9,57,22,1,30.10,30.00,0,0,0,0.00
2013-10-9,85.9,65.8,52.1,61.9,-36.3,-99.9,56,18,3,30.11,30.02,0,0,0,0.00
2013-10-10,84.5,67.5,56.0,66.0,-56.3,-99.9,55,12,4,30.12,29.99,0,0,0,0.00
2013-10-11,90.3,73.4,60.0,70.8,-46.9,-99.9,53,15,1,30.04,29.93,0,0,0,0.00
2013-10-12,91.6,76.3,67.7,72.0,-61.2,-99.9,54,9,1,30.12,29.96,0,0,0,0.00
2013-10-13,88.6,76.8,70.4,69.6,-55.3,-99.9,54,11,4,30.18,30.03,0,0,0,0.00
2013-10-14,89.5,76.7,70.1,70.1,-38.6,-99.9,55,17,1,30.13,30.01,0,0,0,0.00
2013-10-15,88.6,75.7,68.2,69.4,-46.5,-99.9,55,14,1,30.05,29.93,0,0,0,0.00
2013-10-16,90.8,76.3,69.7,71.2,-61.5,-99.9,54,11,1,29.99,29.89,0,0,0,0.00
2013-10-17,69.7,64.7,57.2,-99.9,-99.9,-99.9,0,0,100,30.06,29.95,0,0,0,0.00
2013-10-18,75.3,63.0,53.3,58.3,-48.2,-99.9,57,15,2,30.08,29.93,0,0,0,0.00
2013-10-19,70.5,62.3,53.9,49.1,-73.1,-99.9,49,7,1,30.08,29.92,0,0,0,0.00
2013-10-20,78.2,59.5,48.2,57.7,-40.2,-99.9,58,19,1,30.11,29.98,0,0,0,0.00
2013-10-21,70.7,62.9,54.8,27.7,-91.9,-99.9,20,1,1,30.08,29.94,0,0,0,0.00
2013-10-22,72.4,63.4,56.0,41.6,-62.2,-99.9,37,6,2,30.07,29.97,0,0,0,0.00
2013-10-23,78.5,61.2,49.8,58.3,-30.9,-99.9,58,22,1,30.15,30.06,0,0,0,0.00
2013-10-24,86.7,64.6,49.7,62.3,-30.3,-99.9,58,21,2,30.23,30.13,0,0,0,0.00
2013-10-25,71.4,59.1,48.8,50.7,2.0,-99.9,61,29,1,30.41,30.23,0,0,0,0.00
2013-10-26,80.0,59.8,45.2,57.0,-14.2,-99.9,59,25,1,30.31,30.14,0,0,0,0.00
2013-10-27,77.0,61.2,52.4,53.1,-74.4,-99.9,45,6,3,30.14,30.03,0,0,0,0.00
2013-10-28,84.9,74.4,61.6,66.9,-24.2,-99.9,55,21,1,30.17,30.09,0,0,0,0.00
2013-10-29,84.8,74.2,65.3,69.5,33.3,-99.9,94,59,1,30.21,30.13,19,3,0,0.06
2013-10-30,83.6,71.9,64.3,73.1,67.7,63.1,98,87,65,30.17,29.97,19,4,0,0.00
2013-10-31,76.7,74.7,72.5,71.6,70.5,69.7,91,87,84,29.97,29.82,25,10,0,0.00
2013-11-1,76.8,65.2,54.3,62.1,56.9,51.6,99,77,45,29.98,29.87,11,2,11,0.01
2013-11-2,60.1,56.7,53.6,58.0,55.4,52.8,98,95,91,30.01,29.94,10,1,10,0.00
2013-11-3,70.4,57.6,48.4,49.7,46.9,44.6,92,70,44,30.27,30.13,11,4,15,0.00
2013-11-4,79.3,62.4,46.7,61.1,54.9,44.4,95,78,50,30.21,30.11,18,4,18,0.00
2013-11-5,71.8,63.8,61.2,65.7,60.6,59.3,94,90,80,30.16,30.09,19,5,22,0.00
2013-11-6,82.0,69.7,61.0,73.3,67.2,59.6,97,92,71,30.18,30.05,26,7,26,0.09
2013-11-7,62.6,56.8,49.7,59.5,49.4,42.0,97,79,47,30.38,30.18,25,12,27,0.00
2013-11-17,75.2,74.2,73.3,73.3,72.7,72.1,96,95,94,29.93,29.91,11,6,16,0.01
2013-11-18,78.5,69.5,63.1,57.4,49.2,42.0,74,49,37,30.10,30.02,13,4,15,0.76
2013-11-19,69.4,57.1,46.0,43.6,38.7,32.4,74,52,28,30.19,30.05,15,3,19,0.00
2013-11-20,77.7,56.1,40.8,54.3,43.7,36.3,91,67,30,30.12,30.00,11,2,11,0.00
2013-11-21,75.5,66.6,56.8,70.5,64.6,54.3,99,94,83,30.15,30.06,16,5,18,0.00
2013-11-22,72.0,67.5,63.8,69.2,66.0,62.1,99,95,83,30.24,30.11,15,3,20,0.02
2013-11-23,63.6,50.6,44.1,62.3,49.0,39.8,98,94,85,30.39,30.18,26,9,26,0.02
2013-11-24,51.6,42.8,38.2,39.8,33.3,31.3,85,70,47,30.44,30.30,19,7,21,0.00
2013-11-25,43.6,40.3,37.8,42.8,36.8,31.0,98,88,66,30.34,29.94,17,6,20,1.20
2013-11-26,42.9,41.2,39.6,41.8,40.1,38.3,98,96,92,30.16,29.85,24,11,25,0.56
2013-11-27,47.0,38.1,28.4,38.3,32.3,26.9,96,81,52,30.44,30.16,21,7,23,0.00
2013-11-28,51.1,35.5,27.2,35.8,28.8,25.3,97,79,40,30.51,30.40,9,1,12,0.00
2013-11-29,66.0,41.7,27.0,37.7,32.0,26.0,98,74,28,30.54,30.42,11,2,11,0.00
2013-11-30,68.8,44.7,29.0,41.1,33.8,26.5,98,72,22,30.45,30.25,7,1,8,0.00
2013-12-1,75.8,53.9,36.1,54.3,45.6,34.4,97,77,41,30.27,29.99,11,2,11,0.00
2013-12-2,79.4,65.5,56.8,65.3,60.6,53.9,97,85,57,30.00,29.72,19,4,23,0.00
2013-12-3,82.3,70.0,63.5,69.2,66.0,62.9,99,88,58,29.78,29.68,20,5,24,0.00
2013-12-4,80.3,73.4,69.8,72.1,70.1,68.3,98,90,73,29.89,29.77,17,6,21,0.00
2013-12-5,81.3,72.8,51.4,72.8,69.1,50.4,97,88,73,29.98,29.86,17,7,21,0.01
2013-12-6,51.3,43.8,37.8,50.7,42.8,36.0,99,96,90,30.30,29.95,23,8,26,0.10
2013-12-7,37.8,34.5,33.0,36.0,32.7,31.4,98,93,88,30.38,30.26,23,8,24,0.00
2013-12-8,35.2,33.8,33.3,34.6,33.3,32.8,98,98,98,30.27,30.17,12,4,12,0.08
2013-12-21,75.6,68.0,61.3,71.2,65.7,60.3,98,93,82,29.83,29.64,22,7,31,0.17
2013-12-22,65.7,58.8,43.6,62.5,56.1,39.3,99,91,63,30.26,29.82,21,4,23,0.01
2013-12-23,48.7,40.8,31.9,39.7,34.8,29.0,90,79,59,30.52,30.24,22,9,25,0.00
2013-12-24,52.9,37.8,27.3,36.9,31.9,26.1,97,81,50,30.57,30.36,13,2,15,0.00
2013-12-25,52.4,39.4,28.9,36.3,31.9,27.9,97,76,41,30.42,30.32,12,2,12,0.00
2013-12-26,63.1,45.4,33.0,40.4,36.0,30.6,97,73,41,30.42,30.29,12,2,13,0.00
2013-12-27,52.2,46.7,41.1,40.1,38.3,35.8,88,73,55,30.46,30.30,12,3,13,0.00
2013-12-28,47.1,45.4,42.3,46.0,42.7,37.4,98,90,69,30.31,30.01,10,2,11,0.29
2013-12-29,61.7,45.6,32.4,47.3,39.4,31.9,99,82,39,30.14,30.02,8,1,9,0.00
2013-12-30,50.4,46.4,41.5,46.8,43.6,39.0,98,90,84,30.37,30.12,11,3,13,0.00
2013-12-31,47.1,42.7,38.5,40.7,38.1,35.1,92,84,70,30.44,30.29,13,3,14,0.00
2014-1-1,59.2,51.3,43.0,55.2,48.6,40.1,99,91,76,30.30,30.03,10,2,12,0.02
2014-1-2,56.0,48.0,35.6,55.5,40.6,28.5,99,77,51,30.40,30.00,30,8,34,0.15